Terminal Aerodrome Forecast
Issued by NWS

Home | Current Version | Previous Version | Text Only | Print | Product List | Glossary On
Versions: 1 2 3 4 5 6 7 8 9 10 11 12 13 14
000
FTUS45 KRIW 231133
TAFCPR
TAF
KCPR 231133Z 2312/2412 09008KT P6SM VCSH SCT005 BKN025
     FM231700 21010G15KT P6SM BKN070
     FM232100 22014G20KT P6SM VCTS SCT050CB BKN100
     FM240300 23010KT P6SM BKN150=

USA.gov is the U.S. government's official web portal to all federal, state and local government web resources and services.